sensor_id;sensor_type;location;lat;lon;timestamp;temperature;humidity
12156;DHT22;6141;49.092;8.516;2022-07-29T00:01:49;24.80;36.60
12156;DHT22;6141;49.092;8.516;2022-07-29T00:04:20;24.50;37.30
12156;DHT22;6141;49.092;8.516;2022-07-29T00:06:49;24.30;38.60
12156;DHT22;6141;49.092;8.516;2022-07-29T00:09:17;24.20;39.40
12156;DHT22;6141;49.092;8.516;2022-07-29T00:11:45;24.00;39.20
12156;DHT22;6141;49.092;8.516;2022-07-29T00:14:14;23.90;39.60
12156;DHT22;6141;49.092;8.516;2022-07-29T00:16:43;23.90;39.60
12156;DHT22;6141;49.092;8.516;2022-07-29T00:19:11;23.80;39.50
12156;DHT22;6141;49.092;8.516;2022-07-29T00:21:41;23.90;39.60
12156;DHT22;6141;49.092;8.516;2022-07-29T00:24:09;23.90;39.60
12156;DHT22;6141;49.092;8.516;2022-07-29T00:26:38;23.90;40.20
12156;DHT22;6141;49.092;8.516;2022-07-29T00:29:06;23.90;39.60
12156;DHT22;6141;49.092;8.516;2022-07-29T00:31:54;23.90;39.60
12156;DHT22;6141;49.092;8.516;2022-07-29T00:34:22;23.90;39.60
12156;DHT22;6141;49.092;8.516;2022-07-29T00:37:12;23.90;40.40
12156;DHT22;6141;49.092;8.516;2022-07-29T00:39:40;23.90;39.60
12156;DHT22;6141;49.092;8.516;2022-07-29T00:42:09;23.90;40.10
12156;DHT22;6141;49.092;8.516;2022-07-29T00:44:38;23.80;40.00
12156;DHT22;6141;49.092;8.516;2022-07-29T00:47:07;23.80;39.80
12156;DHT22;6141;49.092;8.516;2022-07-29T00:49:36;23.80;40.70
12156;DHT22;6141;49.092;8.516;2022-07-29T00:52:05;23.80;40.20
12156;DHT22;6141;49.092;8.516;2022-07-29T00:54:36;23.80;40.60
12156;DHT22;6141;49.092;8.516;2022-07-29T00:57:11;23.80;41.50
12156;DHT22;6141;49.092;8.516;2022-07-29T00:59:40;23.70;40.50
12156;DHT22;6141;49.092;8.516;2022-07-29T01:02:08;23.70;40.90
12156;DHT22;6141;49.092;8.516;2022-07-29T01:04:36;23.80;40.70
12156;DHT22;6141;49.092;8.516;2022-07-29T01:07:04;23.80;40.60
12156;DHT22;6141;49.092;8.516;2022-07-29T01:09:32;23.80;40.20
12156;DHT22;6141;49.092;8.516;2022-07-29T01:12:14;23.70;40.40
12156;DHT22;6141;49.092;8.516;2022-07-29T01:14:42;23.80;40.40
12156;DHT22;6141;49.092;8.516;2022-07-29T01:17:11;23.80;41.00
12156;DHT22;6141;49.092;8.516;2022-07-29T01:19:48;23.80;41.00
12156;DHT22;6141;49.092;8.516;2022-07-29T01:22:22;23.80;41.40
12156;DHT22;6141;49.092;8.516;2022-07-29T01:25:00;23.70;41.20
12156;DHT22;6141;49.092;8.516;2022-07-29T01:27:37;23.70;42.40
12156;DHT22;6141;49.092;8.516;2022-07-29T01:30:09;23.70;41.60
12156;DHT22;6141;49.092;8.516;2022-07-29T01:32:41;23.70;42.30
12156;DHT22;6141;49.092;8.516;2022-07-29T01:35:12;23.70;42.00
12156;DHT22;6141;49.092;8.516;2022-07-29T01:37:45;23.80;41.80
12156;DHT22;6141;49.092;8.516;2022-07-29T01:40:17;23.90;40.90
12156;DHT22;6141;49.092;8.516;2022-07-29T01:42:48;24.00;40.30
12156;DHT22;6141;49.092;8.516;2022-07-29T01:45:19;24.20;40.30
12156;DHT22;6141;49.092;8.516;2022-07-29T01:47:50;24.20;39.90
12156;DHT22;6141;49.092;8.516;2022-07-29T01:50:23;24.10;39.90
12156;DHT22;6141;49.092;8.516;2022-07-29T01:52:55;23.80;41.30
12156;DHT22;6141;49.092;8.516;2022-07-29T01:55:25;23.60;41.70
12156;DHT22;6141;49.092;8.516;2022-07-29T01:57:55;23.50;42.20
12156;DHT22;6141;49.092;8.516;2022-07-29T02:00:25;23.50;42.40
12156;DHT22;6141;49.092;8.516;2022-07-29T02:02:54;23.40;43.00
12156;DHT22;6141;49.092;8.516;2022-07-29T02:05:22;23.20;42.90
12156;DHT22;6141;49.092;8.516;2022-07-29T02:07:52;23.30;43.30
12156;DHT22;6141;49.092;8.516;2022-07-29T02:10:21;23.30;44.30
12156;DHT22;6141;49.092;8.516;2022-07-29T02:12:51;23.30;43.30
12156;DHT22;6141;49.092;8.516;2022-07-29T02:15:20;23.40;43.70
12156;DHT22;6141;49.092;8.516;2022-07-29T02:17:52;23.60;42.40
12156;DHT22;6141;49.092;8.516;2022-07-29T02:20:21;23.70;42.00
12156;DHT22;6141;49.092;8.516;2022-07-29T02:22:50;23.80;42.00
12156;DHT22;6141;49.092;8.516;2022-07-29T02:25:20;23.80;42.00
12156;DHT22;6141;49.092;8.516;2022-07-29T02:27:49;23.90;41.50
12156;DHT22;6141;49.092;8.516;2022-07-29T02:30:18;23.90;42.20
12156;DHT22;6141;49.092;8.516;2022-07-29T02:32:47;23.90;40.90
12156;DHT22;6141;49.092;8.516;2022-07-29T02:35:20;24.00;40.60
12156;DHT22;6141;49.092;8.516;2022-07-29T02:37:49;24.00;41.10
12156;DHT22;6141;49.092;8.516;2022-07-29T02:40:32;24.10;40.80
12156;DHT22;6141;49.092;8.516;2022-07-29T02:43:01;24.10;40.30
12156;DHT22;6141;49.092;8.516;2022-07-29T02:45:30;24.20;40.60
12156;DHT22;6141;49.092;8.516;2022-07-29T02:47:59;24.20;39.90
12156;DHT22;6141;49.092;8.516;2022-07-29T02:50:35;24.30;40.00
12156;DHT22;6141;49.092;8.516;2022-07-29T02:53:05;24.30;40.00
12156;DHT22;6141;49.092;8.516;2022-07-29T02:55:37;24.20;39.50
12156;DHT22;6141;49.092;8.516;2022-07-29T02:58:05;24.30;39.80
12156;DHT22;6141;49.092;8.516;2022-07-29T03:00:36;24.20;39.90
12156;DHT22;6141;49.092;8.516;2022-07-29T03:03:07;23.80;39.50
12156;DHT22;6141;49.092;8.516;2022-07-29T03:05:38;23.80;40.60
12156;DHT22;6141;49.092;8.516;2022-07-29T03:08:10;23.70;40.60
12156;DHT22;6141;49.092;8.516;2022-07-29T03:10:39;23.70;41.00
12156;DHT22;6141;49.092;8.516;2022-07-29T03:13:10;23.50;40.70
12156;DHT22;6141;49.092;8.516;2022-07-29T03:15:39;23.20;41.70
12156;DHT22;6141;49.092;8.516;2022-07-29T03:18:07;23.10;42.10
12156;DHT22;6141;49.092;8.516;2022-07-29T03:20:36;22.80;42.80
12156;DHT22;6141;49.092;8.516;2022-07-29T03:23:06;22.60;43.50
12156;DHT22;6141;49.092;8.516;2022-07-29T03:25:34;22.40;43.30
12156;DHT22;6141;49.092;8.516;2022-07-29T03:28:02;22.30;44.40
12156;DHT22;6141;49.092;8.516;2022-07-29T03:30:30;22.10;44.30
12156;DHT22;6141;49.092;8.516;2022-07-29T03:32:58;21.90;44.80
12156;DHT22;6141;49.092;8.516;2022-07-29T03:35:28;21.80;45.60
12156;DHT22;6141;49.092;8.516;2022-07-29T03:37:58;21.70;46.20
12156;DHT22;6141;49.092;8.516;2022-07-29T03:40:30;21.80;46.40
12156;DHT22;6141;49.092;8.516;2022-07-29T03:42:59;21.80;46.40
12156;DHT22;6141;49.092;8.516;2022-07-29T03:45:28;21.80;46.50
12156;DHT22;6141;49.092;8.516;2022-07-29T03:47:59;21.60;46.60
12156;DHT22;6141;49.092;8.516;2022-07-29T03:50:28;21.30;47.00
12156;DHT22;6141;49.092;8.516;2022-07-29T03:52:58;21.20;47.50
12156;DHT22;6141;49.092;8.516;2022-07-29T03:55:28;21.20;48.30
12156;DHT22;6141;49.092;8.516;2022-07-29T03:57:56;21.20;48.50
12156;DHT22;6141;49.092;8.516;2022-07-29T04:00:25;21.50;48.30
12156;DHT22;6141;49.092;8.516;2022-07-29T04:02:53;21.60;47.80
12156;DHT22;6141;49.092;8.516;2022-07-29T04:05:21;21.50;47.50
12156;DHT22;6141;49.092;8.516;2022-07-29T04:07:49;21.40;47.50
12156;DHT22;6141;49.092;8.516;2022-07-29T04:10:17;21.20;47.90
12156;DHT22;6141;49.092;8.516;2022-07-29T04:12:59;21.30;48.20
12156;DHT22;6141;49.092;8.516;2022-07-29T04:15:27;21.40;48.00
12156;DHT22;6141;49.092;8.516;2022-07-29T04:17:57;21.50;47.60
12156;DHT22;6141;49.092;8.516;2022-07-29T04:20:25;21.70;47.50
12156;DHT22;6141;49.092;8.516;2022-07-29T04:22:53;21.60;47.30
12156;DHT22;6141;49.092;8.516;2022-07-29T04:25:21;21.50;47.10
12156;DHT22;6141;49.092;8.516;2022-07-29T04:27:49;21.20;47.50
12156;DHT22;6141;49.092;8.516;2022-07-29T04:30:31;20.90;49.00
12156;DHT22;6141;49.092;8.516;2022-07-29T04:33:00;20.90;49.50
12156;DHT22;6141;49.092;8.516;2022-07-29T04:35:28;20.90;49.40
12156;DHT22;6141;49.092;8.516;2022-07-29T04:38:03;20.80;50.70
12156;DHT22;6141;49.092;8.516;2022-07-29T04:40:32;20.80;51.80
12156;DHT22;6141;49.092;8.516;2022-07-29T04:43:04;20.90;51.40
12156;DHT22;6141;49.092;8.516;2022-07-29T04:45:34;20.90;51.40
12156;DHT22;6141;49.092;8.516;2022-07-29T04:48:02;21.00;51.20
12156;DHT22;6141;49.092;8.516;2022-07-29T04:50:30;21.10;51.20
12156;DHT22;6141;49.092;8.516;2022-07-29T04:52:58;21.00;51.10
12156;DHT22;6141;49.092;8.516;2022-07-29T04:55:26;21.10;50.70
12156;DHT22;6141;49.092;8.516;2022-07-29T04:57:54;21.20;49.90
12156;DHT22;6141;49.092;8.516;2022-07-29T05:00:22;21.40;50.00
12156;DHT22;6141;49.092;8.516;2022-07-29T05:03:00;21.50;50.00
12156;DHT22;6141;49.092;8.516;2022-07-29T05:05:29;21.50;50.00
12156;DHT22;6141;49.092;8.516;2022-07-29T05:07:57;21.60;50.20
12156;DHT22;6141;49.092;8.516;2022-07-29T05:10:27;21.60;50.10
12156;DHT22;6141;49.092;8.516;2022-07-29T05:12:56;21.70;49.20
12156;DHT22;6141;49.092;8.516;2022-07-29T05:15:25;21.80;49.10
12156;DHT22;6141;49.092;8.516;2022-07-29T05:17:53;21.90;48.90
12156;DHT22;6141;49.092;8.516;2022-07-29T05:20:22;22.10;48.80
12156;DHT22;6141;49.092;8.516;2022-07-29T05:22:54;22.10;48.80
12156;DHT22;6141;49.092;8.516;2022-07-29T05:25:23;22.20;48.40
12156;DHT22;6141;49.092;8.516;2022-07-29T05:28:10;22.30;48.50
12156;DHT22;6141;49.092;8.516;2022-07-29T05:30:38;22.50;47.80
12156;DHT22;6141;49.092;8.516;2022-07-29T05:33:06;22.50;48.40
12156;DHT22;6141;49.092;8.516;2022-07-29T05:35:56;22.60;47.30
12156;DHT22;6141;49.092;8.516;2022-07-29T05:38:26;22.60;48.00
12156;DHT22;6141;49.092;8.516;2022-07-29T05:40:56;22.50;48.30
12156;DHT22;6141;49.092;8.516;2022-07-29T05:43:24;22.50;48.40
12156;DHT22;6141;49.092;8.516;2022-07-29T05:45:52;22.50;48.40
12156;DHT22;6141;49.092;8.516;2022-07-29T05:48:20;22.50;48.70
12156;DHT22;6141;49.092;8.516;2022-07-29T05:50:49;22.60;48.60
12156;DHT22;6141;49.092;8.516;2022-07-29T05:53:18;22.60;48.90
12156;DHT22;6141;49.092;8.516;2022-07-29T05:55:47;22.80;48.30
12156;DHT22;6141;49.092;8.516;2022-07-29T05:58:15;22.90;48.40
12156;DHT22;6141;49.092;8.516;2022-07-29T06:00:43;22.90;47.80
12156;DHT22;6141;49.092;8.516;2022-07-29T06:03:11;22.70;47.10
12156;DHT22;6141;49.092;8.516;2022-07-29T06:05:39;22.60;47.90
12156;DHT22;6141;49.092;8.516;2022-07-29T06:08:08;22.60;48.20
12156;DHT22;6141;49.092;8.516;2022-07-29T06:10:39;22.40;47.70
12156;DHT22;6141;49.092;8.516;2022-07-29T06:13:07;22.40;48.40
12156;DHT22;6141;49.092;8.516;2022-07-29T06:15:37;22.50;47.70
12156;DHT22;6141;49.092;8.516;2022-07-29T06:18:05;22.60;47.70
12156;DHT22;6141;49.092;8.516;2022-07-29T06:20:36;22.60;46.80
12156;DHT22;6141;49.092;8.516;2022-07-29T06:23:04;22.40;46.30
12156;DHT22;6141;49.092;8.516;2022-07-29T06:25:32;22.30;46.80
12156;DHT22;6141;49.092;8.516;2022-07-29T06:28:03;22.40;47.00
12156;DHT22;6141;49.092;8.516;2022-07-29T06:30:31;22.40;46.80
12156;DHT22;6141;49.092;8.516;2022-07-29T06:32:59;22.40;46.20
12156;DHT22;6141;49.092;8.516;2022-07-29T06:35:28;22.40;46.10
12156;DHT22;6141;49.092;8.516;2022-07-29T06:38:07;22.40;46.40
12156;DHT22;6141;49.092;8.516;2022-07-29T06:40:56;22.40;47.80
12156;DHT22;6141;49.092;8.516;2022-07-29T06:43:36;22.60;47.20
12156;DHT22;6141;49.092;8.516;2022-07-29T06:46:19;22.70;46.30
12156;DHT22;6141;49.092;8.516;2022-07-29T06:48:48;23.10;44.20
12156;DHT22;6141;49.092;8.516;2022-07-29T06:51:18;23.10;43.50
12156;DHT22;6141;49.092;8.516;2022-07-29T06:54:02;23.10;43.20
12156;DHT22;6141;49.092;8.516;2022-07-29T06:57:39;23.20;44.10
12156;DHT22;6141;49.092;8.516;2022-07-29T07:08:33;23.90;40.40
12156;DHT22;6141;49.092;8.516;2022-07-29T07:11:08;24.00;39.10
12156;DHT22;6141;49.092;8.516;2022-07-29T07:13:48;23.90;39.30
12156;DHT22;6141;49.092;8.516;2022-07-29T07:16:34;24.10;38.50
12156;DHT22;6141;49.092;8.516;2022-07-29T07:20:01;24.20;38.40
12156;DHT22;6141;49.092;8.516;2022-07-29T07:23:21;24.30;39.00
12156;DHT22;6141;49.092;8.516;2022-07-29T07:26:55;24.50;38.60
12156;DHT22;6141;49.092;8.516;2022-07-29T07:30:16;24.90;38.10
12156;DHT22;6141;49.092;8.516;2022-07-29T07:34:18;24.80;38.10
12156;DHT22;6141;49.092;8.516;2022-07-29T07:37:07;24.90;38.00
12156;DHT22;6141;49.092;8.516;2022-07-29T07:39:45;25.10;38.70
12156;DHT22;6141;49.092;8.516;2022-07-29T07:45:15;25.60;37.10
12156;DHT22;6141;49.092;8.516;2022-07-29T07:47:56;25.70;36.20
12156;DHT22;6141;49.092;8.516;2022-07-29T07:50:40;25.60;35.80
12156;DHT22;6141;49.092;8.516;2022-07-29T07:53:21;25.80;37.00
12156;DHT22;6141;49.092;8.516;2022-07-29T07:55:49;25.80;34.70
12156;DHT22;6141;49.092;8.516;2022-07-29T07:58:37;25.70;34.70
12156;DHT22;6141;49.092;8.516;2022-07-29T08:01:09;25.70;35.60
12156;DHT22;6141;49.092;8.516;2022-07-29T08:03:38;25.60;35.70
12156;DHT22;6141;49.092;8.516;2022-07-29T08:06:07;25.60;35.90
12156;DHT22;6141;49.092;8.516;2022-07-29T08:08:35;25.40;34.40
12156;DHT22;6141;49.092;8.516;2022-07-29T08:11:04;25.30;36.50
12156;DHT22;6141;49.092;8.516;2022-07-29T08:13:37;25.40;37.30
12156;DHT22;6141;49.092;8.516;2022-07-29T08:16:13;25.60;36.70
12156;DHT22;6141;49.092;8.516;2022-07-29T08:18:44;25.80;34.70
12156;DHT22;6141;49.092;8.516;2022-07-29T08:21:14;26.10;33.50
12156;DHT22;6141;49.092;8.516;2022-07-29T08:23:46;26.30;33.60
12156;DHT22;6141;49.092;8.516;2022-07-29T08:26:26;26.30;33.60
12156;DHT22;6141;49.092;8.516;2022-07-29T08:29:01;26.20;33.60
12156;DHT22;6141;49.092;8.516;2022-07-29T08:31:33;26.10;32.00
12156;DHT22;6141;49.092;8.516;2022-07-29T08:34:08;26.10;32.10
12156;DHT22;6141;49.092;8.516;2022-07-29T08:42:34;26.20;33.30
12156;DHT22;6141;49.092;8.516;2022-07-29T08:50:34;26.70;31.80
12156;DHT22;6141;49.092;8.516;2022-07-29T08:54:05;27.00;29.30
12156;DHT22;6141;49.092;8.516;2022-07-29T08:56:58;27.00;30.30
12156;DHT22;6141;49.092;8.516;2022-07-29T09:00:22;27.30;29.40
12156;DHT22;6141;49.092;8.516;2022-07-29T09:15:25;27.50;27.60
12156;DHT22;6141;49.092;8.516;2022-07-29T09:22:12;27.20;27.30
12156;DHT22;6141;49.092;8.516;2022-07-29T09:29:01;27.50;27.60
12156;DHT22;6141;49.092;8.516;2022-07-29T09:32:17;27.80;26.70
12156;DHT22;6141;49.092;8.516;2022-07-29T09:36:44;28.00;24.60
12156;DHT22;6141;49.092;8.516;2022-07-29T09:40:25;28.00;26.10
12156;DHT22;6141;49.092;8.516;2022-07-29T09:51:43;28.10;25.20
12156;DHT22;6141;49.092;8.516;2022-07-29T09:55:12;28.40;24.80
12156;DHT22;6141;49.092;8.516;2022-07-29T09:57:45;28.30;24.30
12156;DHT22;6141;49.092;8.516;2022-07-29T10:00:16;28.40;24.40
12156;DHT22;6141;49.092;8.516;2022-07-29T10:02:48;28.60;23.70
12156;DHT22;6141;49.092;8.516;2022-07-29T10:05:29;28.80;23.50
12156;DHT22;6141;49.092;8.516;2022-07-29T10:08:08;28.60;23.50
12156;DHT22;6141;49.092;8.516;2022-07-29T10:10:39;28.50;23.70
12156;DHT22;6141;49.092;8.516;2022-07-29T10:13:11;28.70;23.40
12156;DHT22;6141;49.092;8.516;2022-07-29T10:15:53;28.90;22.60
12156;DHT22;6141;49.092;8.516;2022-07-29T10:18:27;29.00;23.20
12156;DHT22;6141;49.092;8.516;2022-07-29T10:20:58;28.80;22.40
12156;DHT22;6141;49.092;8.516;2022-07-29T10:23:30;28.60;23.00
12156;DHT22;6141;49.092;8.516;2022-07-29T10:26:26;28.60;23.60
12156;DHT22;6141;49.092;8.516;2022-07-29T10:29:26;28.80;22.80
12156;DHT22;6141;49.092;8.516;2022-07-29T10:35:18;28.60;23.80
12156;DHT22;6141;49.092;8.516;2022-07-29T10:38:08;28.60;23.30
12156;DHT22;6141;49.092;8.516;2022-07-29T10:41:00;28.60;23.20
12156;DHT22;6141;49.092;8.516;2022-07-29T10:44:18;28.80;22.90
12156;DHT22;6141;49.092;8.516;2022-07-29T10:47:00;28.90;22.20
12156;DHT22;6141;49.092;8.516;2022-07-29T10:49:31;28.80;22.60
12156;DHT22;6141;49.092;8.516;2022-07-29T10:52:04;28.70;22.90
12156;DHT22;6141;49.092;8.516;2022-07-29T10:54:49;28.80;22.70
12156;DHT22;6141;49.092;8.516;2022-07-29T10:57:36;28.90;24.00
12156;DHT22;6141;49.092;8.516;2022-07-29T11:00:31;29.20;22.40
12156;DHT22;6141;49.092;8.516;2022-07-29T11:03:11;29.20;22.20
12156;DHT22;6141;49.092;8.516;2022-07-29T11:07:11;29.30;20.90
12156;DHT22;6141;49.092;8.516;2022-07-29T11:10:38;29.70;22.00
12156;DHT22;6141;49.092;8.516;2022-07-29T11:13:52;30.00;20.80
12156;DHT22;6141;49.092;8.516;2022-07-29T11:17:03;30.20;22.20
12156;DHT22;6141;49.092;8.516;2022-07-29T11:24:17;30.50;20.70
12156;DHT22;6141;49.092;8.516;2022-07-29T11:34:23;30.80;20.90
12156;DHT22;6141;49.092;8.516;2022-07-29T11:37:30;30.80;20.90
12156;DHT22;6141;49.092;8.516;2022-07-29T11:41:32;30.90;20.90
12156;DHT22;6141;49.092;8.516;2022-07-29T11:54:51;31.00;18.70
12156;DHT22;6141;49.092;8.516;2022-07-29T11:58:02;31.20;19.30
12156;DHT22;6141;49.092;8.516;2022-07-29T12:00:34;31.20;19.60
12156;DHT22;6141;49.092;8.516;2022-07-29T12:03:23;31.10;18.70
12156;DHT22;6141;49.092;8.516;2022-07-29T12:06:11;31.00;19.90
12156;DHT22;6141;49.092;8.516;2022-07-29T12:08:50;30.90;18.70
12156;DHT22;6141;49.092;8.516;2022-07-29T12:15:14;30.10;20.40
12156;DHT22;6141;49.092;8.516;2022-07-29T12:17:59;30.00;20.40
12156;DHT22;6141;49.092;8.516;2022-07-29T12:21:46;30.00;20.40
12156;DHT22;6141;49.092;8.516;2022-07-29T12:24:44;29.90;20.40
12156;DHT22;6141;49.092;8.516;2022-07-29T12:31:39;29.90;20.30
12156;DHT22;6141;49.092;8.516;2022-07-29T12:35:44;29.80;20.40
12156;DHT22;6141;49.092;8.516;2022-07-29T12:39:14;29.90;20.30
12156;DHT22;6141;49.092;8.516;2022-07-29T12:51:25;30.20;20.50
12156;DHT22;6141;49.092;8.516;2022-07-29T13:06:44;30.50;20.70
12156;DHT22;6141;49.092;8.516;2022-07-29T13:09:38;30.90;19.80
12156;DHT22;6141;49.092;8.516;2022-07-29T13:12:08;30.80;19.50
12156;DHT22;6141;49.092;8.516;2022-07-29T13:14:38;30.60;19.50
12156;DHT22;6141;49.092;8.516;2022-07-29T13:17:08;30.30;18.90
12156;DHT22;6141;49.092;8.516;2022-07-29T13:19:41;30.10;18.80
12156;DHT22;6141;49.092;8.516;2022-07-29T13:22:13;29.90;18.80
12156;DHT22;6141;49.092;8.516;2022-07-29T13:24:49;29.60;19.40
12156;DHT22;6141;49.092;8.516;2022-07-29T13:27:18;29.70;20.90
12156;DHT22;6141;49.092;8.516;2022-07-29T13:29:47;29.90;19.30
12156;DHT22;6141;49.092;8.516;2022-07-29T13:32:18;30.20;19.80
12156;DHT22;6141;49.092;8.516;2022-07-29T13:34:59;30.30;17.60
12156;DHT22;6141;49.092;8.516;2022-07-29T13:37:33;30.20;19.00
12156;DHT22;6141;49.092;8.516;2022-07-29T13:40:06;30.20;19.00
12156;DHT22;6141;49.092;8.516;2022-07-29T13:42:35;29.90;18.20
12156;DHT22;6141;49.092;8.516;2022-07-29T13:45:04;29.60;19.90
12156;DHT22;6141;49.092;8.516;2022-07-29T13:47:33;29.60;20.20
12156;DHT22;6141;49.092;8.516;2022-07-29T13:50:05;29.50;20.10
12156;DHT22;6141;49.092;8.516;2022-07-29T13:52:38;29.60;20.10
12156;DHT22;6141;49.092;8.516;2022-07-29T13:55:08;29.60;19.20
12156;DHT22;6141;49.092;8.516;2022-07-29T13:57:38;29.60;19.00
12156;DHT22;6141;49.092;8.516;2022-07-29T14:00:08;29.60;19.40
12156;DHT22;6141;49.092;8.516;2022-07-29T14:02:36;29.60;18.60
12156;DHT22;6141;49.092;8.516;2022-07-29T14:05:06;29.70;19.40
12156;DHT22;6141;49.092;8.516;2022-07-29T14:07:35;29.90;19.00
12156;DHT22;6141;49.092;8.516;2022-07-29T14:10:06;30.10;18.40
12156;DHT22;6141;49.092;8.516;2022-07-29T14:12:34;30.20;17.70
12156;DHT22;6141;49.092;8.516;2022-07-29T14:15:03;29.90;18.20
12156;DHT22;6141;49.092;8.516;2022-07-29T14:17:31;29.80;17.90
12156;DHT22;6141;49.092;8.516;2022-07-29T14:20:04;29.60;17.50
12156;DHT22;6141;49.092;8.516;2022-07-29T14:22:40;29.60;17.80
12156;DHT22;6141;49.092;8.516;2022-07-29T14:25:13;29.50;17.80
12156;DHT22;6141;49.092;8.516;2022-07-29T14:27:45;29.40;17.00
12156;DHT22;6141;49.092;8.516;2022-07-29T14:30:22;29.50;17.30
12156;DHT22;6141;49.092;8.516;2022-07-29T14:33:06;29.60;16.50
12156;DHT22;6141;49.092;8.516;2022-07-29T14:35:41;29.50;16.70
12156;DHT22;6141;49.092;8.516;2022-07-29T14:38:21;29.50;17.90
12156;DHT22;6141;49.092;8.516;2022-07-29T14:40:57;29.40;17.20
12156;DHT22;6141;49.092;8.516;2022-07-29T14:43:29;29.20;17.10
12156;DHT22;6141;49.092;8.516;2022-07-29T14:45:57;29.20;16.50
12156;DHT22;6141;49.092;8.516;2022-07-29T14:48:34;29.10;16.80
12156;DHT22;6141;49.092;8.516;2022-07-29T14:51:21;29.30;16.70
12156;DHT22;6141;49.092;8.516;2022-07-29T14:53:59;29.30;16.30
12156;DHT22;6141;49.092;8.516;2022-07-29T14:56:32;29.30;16.20
12156;DHT22;6141;49.092;8.516;2022-07-29T14:59:03;29.40;16.30
12156;DHT22;6141;49.092;8.516;2022-07-29T15:01:35;29.50;15.50
12156;DHT22;6141;49.092;8.516;2022-07-29T15:04:04;29.50;15.80
12156;DHT22;6141;49.092;8.516;2022-07-29T15:07:23;29.50;15.10
12156;DHT22;6141;49.092;8.516;2022-07-29T15:09:52;29.50;14.70
12156;DHT22;6141;49.092;8.516;2022-07-29T15:12:27;29.40;14.60
12156;DHT22;6141;49.092;8.516;2022-07-29T15:15:01;29.50;16.00
12156;DHT22;6141;49.092;8.516;2022-07-29T15:18:12;29.50;15.40
12156;DHT22;6141;49.092;8.516;2022-07-29T15:21:04;29.50;15.60
12156;DHT22;6141;49.092;8.516;2022-07-29T15:23:43;29.50;14.60
12156;DHT22;6141;49.092;8.516;2022-07-29T15:26:16;29.40;14.70
12156;DHT22;6141;49.092;8.516;2022-07-29T15:28:54;29.30;14.90
12156;DHT22;6141;49.092;8.516;2022-07-29T15:31:33;29.40;15.50
12156;DHT22;6141;49.092;8.516;2022-07-29T15:34:05;29.30;15.30
12156;DHT22;6141;49.092;8.516;2022-07-29T15:36:38;29.10;15.80
12156;DHT22;6141;49.092;8.516;2022-07-29T15:39:22;29.00;15.30
12156;DHT22;6141;49.092;8.516;2022-07-29T15:41:53;29.20;15.70
12156;DHT22;6141;49.092;8.516;2022-07-29T15:44:24;29.20;15.20
12156;DHT22;6141;49.092;8.516;2022-07-29T15:46:52;29.10;15.50
12156;DHT22;6141;49.092;8.516;2022-07-29T15:49:41;29.20;16.20
12156;DHT22;6141;49.092;8.516;2022-07-29T15:52:24;29.40;16.40
12156;DHT22;6141;49.092;8.516;2022-07-29T15:55:07;29.70;15.60
12156;DHT22;6141;49.092;8.516;2022-07-29T15:57:47;29.80;14.80
12156;DHT22;6141;49.092;8.516;2022-07-29T16:00:39;29.90;14.40
12156;DHT22;6141;49.092;8.516;2022-07-29T16:03:20;29.90;14.00
12156;DHT22;6141;49.092;8.516;2022-07-29T16:05:54;30.10;14.30
12156;DHT22;6141;49.092;8.516;2022-07-29T16:08:23;30.00;13.70
12156;DHT22;6141;49.092;8.516;2022-07-29T16:10:51;29.90;14.20
12156;DHT22;6141;49.092;8.516;2022-07-29T16:13:21;29.70;13.30
12156;DHT22;6141;49.092;8.516;2022-07-29T16:15:51;29.50;13.70
12156;DHT22;6141;49.092;8.516;2022-07-29T16:18:29;29.40;14.50
12156;DHT22;6141;49.092;8.516;2022-07-29T16:21:01;29.50;14.60
12156;DHT22;6141;49.092;8.516;2022-07-29T16:23:33;29.70;14.70
12156;DHT22;6141;49.092;8.516;2022-07-29T16:26:02;29.90;14.80
12156;DHT22;6141;49.092;8.516;2022-07-29T16:28:31;30.10;14.00
12156;DHT22;6141;49.092;8.516;2022-07-29T16:31:04;30.20;13.60
12156;DHT22;6141;49.092;8.516;2022-07-29T16:33:32;29.90;14.10
12156;DHT22;6141;49.092;8.516;2022-07-29T16:36:21;30.00;13.70
12156;DHT22;6141;49.092;8.516;2022-07-29T16:38:49;30.10;13.80
12156;DHT22;6141;49.092;8.516;2022-07-29T16:41:18;29.90;14.20
12156;DHT22;6141;49.092;8.516;2022-07-29T16:43:47;29.70;14.00
12156;DHT22;6141;49.092;8.516;2022-07-29T16:46:27;29.60;13.80
12156;DHT22;6141;49.092;8.516;2022-07-29T16:49:02;29.60;13.90
12156;DHT22;6141;49.092;8.516;2022-07-29T16:51:33;29.60;13.30
12156;DHT22;6141;49.092;8.516;2022-07-29T16:54:02;29.70;13.70
12156;DHT22;6141;49.092;8.516;2022-07-29T16:56:31;29.80;13.70
12156;DHT22;6141;49.092;8.516;2022-07-29T16:59:06;29.80;13.30
12156;DHT22;6141;49.092;8.516;2022-07-29T17:02:04;29.70;12.90
12156;DHT22;6141;49.092;8.516;2022-07-29T17:04:41;29.60;13.10
12156;DHT22;6141;49.092;8.516;2022-07-29T17:07:21;29.60;12.70
12156;DHT22;6141;49.092;8.516;2022-07-29T17:09:52;29.70;12.90
12156;DHT22;6141;49.092;8.516;2022-07-29T17:12:29;29.60;12.90
12156;DHT22;6141;49.092;8.516;2022-07-29T17:15:05;29.60;12.90
12156;DHT22;6141;49.092;8.516;2022-07-29T17:17:36;29.60;13.60
12156;DHT22;6141;49.092;8.516;2022-07-29T17:20:37;29.60;14.30
12156;DHT22;6141;49.092;8.516;2022-07-29T17:23:07;29.60;15.30
12156;DHT22;6141;49.092;8.516;2022-07-29T17:25:44;29.60;14.60
12156;DHT22;6141;49.092;8.516;2022-07-29T17:28:33;29.40;14.60
12156;DHT22;6141;49.092;8.516;2022-07-29T17:31:29;29.30;14.60
12156;DHT22;6141;49.092;8.516;2022-07-29T17:34:15;29.20;15.40
12156;DHT22;6141;49.092;8.516;2022-07-29T17:36:57;29.20;15.20
12156;DHT22;6141;49.092;8.516;2022-07-29T17:39:40;29.20;15.40
12156;DHT22;6141;49.092;8.516;2022-07-29T17:42:21;29.30;15.60
12156;DHT22;6141;49.092;8.516;2022-07-29T17:44:54;29.40;15.30
12156;DHT22;6141;49.092;8.516;2022-07-29T17:47:22;29.50;15.50
12156;DHT22;6141;49.092;8.516;2022-07-29T17:49:52;29.50;14.00
12156;DHT22;6141;49.092;8.516;2022-07-29T17:52:21;29.40;12.60
12156;DHT22;6141;49.092;8.516;2022-07-29T17:54:49;29.40;10.60
12156;DHT22;6141;49.092;8.516;2022-07-29T18:02:11;29.30;10.90
12156;DHT22;6141;49.092;8.516;2022-07-29T18:08:19;29.40;11.30
12156;DHT22;6141;49.092;8.516;2022-07-29T18:14:26;29.60;11.90
12156;DHT22;6141;49.092;8.516;2022-07-29T18:17:47;29.60;11.60
12156;DHT22;6141;49.092;8.516;2022-07-29T18:21:01;29.60;11.80
12156;DHT22;6141;49.092;8.516;2022-07-29T18:23:34;29.50;12.00
12156;DHT22;6141;49.092;8.516;2022-07-29T18:26:20;29.40;12.10
12156;DHT22;6141;49.092;8.516;2022-07-29T18:29:20;29.40;11.80
12156;DHT22;6141;49.092;8.516;2022-07-29T18:35:19;29.10;13.10
12156;DHT22;6141;49.092;8.516;2022-07-29T18:38:17;29.20;14.40
12156;DHT22;6141;49.092;8.516;2022-07-29T18:40:51;29.20;14.40
12156;DHT22;6141;49.092;8.516;2022-07-29T18:43:24;29.10;15.30
12156;DHT22;6141;49.092;8.516;2022-07-29T18:46:33;29.10;16.20
12156;DHT22;6141;49.092;8.516;2022-07-29T18:49:19;29.20;15.90
12156;DHT22;6141;49.092;8.516;2022-07-29T18:52:08;29.10;16.20
12156;DHT22;6141;49.092;8.516;2022-07-29T18:58:58;29.20;16.40
12156;DHT22;6141;49.092;8.516;2022-07-29T19:02:24;28.90;16.60